Time;durP1;ratioP1;P1;durP2;ratioP2;P2;SDS_P1;SDS_P2;PMS_P1;PMS_P2;Temp;Humidity;BMP_temperature;BMP_pressure;BME280_temperature;BME280_humidity;BME280_pressure;Samples;Min_cycle;Max_cycle;Signal;HPM_P1;HPM_P2
2022/08/07 00:00:35;;;;;;;3.22;1.70;;;;;;;14.33;65.53;102569.69;5007829;28;20092;-72
2022/08/07 00:03:00;;;;;;;3.13;1.80;;;;;;;14.31;65.85;102566.22;5008496;28;20065;-72
2022/08/07 00:05:26;;;;;;;3.50;1.60;;;;;;;14.31;64.93;102576.69;5005392;28;20050;-72
2022/08/07 00:07:53;;;;;;;2.40;1.77;;;;;;;14.29;65.25;102575.84;5007582;28;20022;-72
2022/08/07 00:10:19;;;;;;;3.42;1.80;;;;;;;14.24;65.66;102565.44;5007438;28;20022;-72
2022/08/07 00:12:45;;;;;;;2.60;1.85;;;;;;;14.22;66.48;102561.97;5006660;28;20021;-72
2022/08/07 00:15:11;;;;;;;5.22;1.60;;;;;;;14.20;65.90;102558.50;5009310;28;20481;-72
2022/08/07 00:17:37;;;;;;;2.33;1.80;;;;;;;14.18;65.97;102562.88;5004595;28;20501;-72
2022/08/07 00:20:04;;;;;;;6.82;2.10;;;;;;;14.16;66.17;102559.47;5005219;28;20030;-73
2022/08/07 00:22:29;;;;;;;5.00;1.90;;;;;;;14.13;66.28;102556.88;5008287;28;20102;-72
2022/08/07 00:24:54;;;;;;;2.28;1.75;;;;;;;14.10;66.26;102563.00;5012259;28;20471;-72
2022/08/07 00:27:19;;;;;;;3.00;1.90;;;;;;;14.07;66.43;102553.44;5008258;28;20089;-72
2022/08/07 00:29:45;;;;;;;2.08;1.77;;;;;;;14.06;66.55;102556.09;5010011;28;20022;-73
2022/08/07 00:32:12;;;;;;;2.80;2.00;;;;;;;14.02;66.60;102552.63;5010512;28;20033;-72
2022/08/07 00:34:37;;;;;;;2.38;1.70;;;;;;;13.97;66.68;102551.84;5008691;28;21814;-72
2022/08/07 00:37:03;;;;;;;4.00;2.22;;;;;;;13.93;66.83;102542.28;5014655;28;20125;-73
2022/08/07 00:39:28;;;;;;;3.80;1.90;;;;;;;13.89;66.97;102540.59;5007482;28;20130;-72
2022/08/07 00:41:57;;;;;;;2.88;1.88;;;;;;;13.88;66.16;102544.97;5010329;28;20021;-72
2022/08/07 00:44:23;;;;;;;3.17;2.00;;;;;;;13.85;67.15;102528.41;5014442;28;20045;-73
2022/08/07 00:46:49;;;;;;;2.90;1.90;;;;;;;13.84;67.31;102531.91;5008182;28;20100;-72
2022/08/07 00:49:14;;;;;;;3.53;2.10;;;;;;;13.81;66.56;102536.34;5008020;28;20541;-72
2022/08/07 00:51:40;;;;;;;2.70;1.90;;;;;;;13.78;67.11;102541.59;5011572;28;20504;-72
2022/08/07 00:54:06;;;;;;;4.70;1.88;;;;;;;13.75;67.90;102532.94;5011868;28;20428;-72
2022/08/07 00:56:32;;;;;;;2.17;1.80;;;;;;;13.72;67.81;102528.56;5011457;28;20102;-72
2022/08/07 00:58:58;;;;;;;4.45;2.15;;;;;;;13.71;67.80;102529.47;5015889;28;20022;-72
2022/08/07 01:01:23;;;;;;;2.83;1.90;;;;;;;13.70;68.15;102526.88;5013188;28;20028;-72
2022/08/07 01:03:50;;;;;;;3.35;2.15;;;;;;;13.66;67.79;102524.28;5015061;28;20304;-72
2022/08/07 01:06:16;;;;;;;2.72;1.98;;;;;;;13.65;67.06;102529.56;5009969;28;20041;-72
2022/08/07 01:08:42;;;;;;;3.22;2.25;;;;;;;13.62;67.24;102525.19;5010286;28;20032;-72
2022/08/07 01:11:08;;;;;;;2.33;1.95;;;;;;;13.59;67.22;102524.38;5013031;28;20413;-72
2022/08/07 01:13:34;;;;;;;3.30;2.17;;;;;;;13.55;67.97;102520.06;5010455;28;20123;-73
2022/08/07 01:16:01;;;;;;;3.58;2.33;;;;;;;13.53;67.99;102521.81;5012495;28;20087;-73
2022/08/07 01:18:28;;;;;;;4.05;2.28;;;;;;;13.52;67.66;102520.97;5014463;28;20507;-72
2022/08/07 01:21:12;;;;;;;3.92;2.70;;;;;;;13.51;67.75;102522.69;5014226;28;20069;-73
2022/08/07 01:23:43;;;;;;;2.92;2.30;;;;;;;13.46;68.33;102519.28;5012836;28;20559;-72
2022/08/07 01:26:11;;;;;;;3.70;2.45;;;;;;;13.40;68.71;102516.72;5012328;28;20029;-72
2022/08/07 01:28:38;;;;;;;4.72;2.33;;;;;;;13.36;69.05;102507.16;5009596;28;20033;-72
2022/08/07 01:31:04;;;;;;;3.53;2.40;;;;;;;13.33;69.35;102507.19;5011809;28;20172;-72
2022/08/07 01:33:31;;;;;;;4.97;2.35;;;;;;;13.32;69.31;102502.88;5011884;28;20101;-73
2022/08/07 01:35:59;;;;;;;5.13;2.70;;;;;;;13.31;69.36;102498.53;5013950;28;20046;-72
2022/08/07 01:38:25;;;;;;;4.40;2.60;;;;;;;13.31;69.11;102506.34;5012359;28;20030;-72
2022/08/07 01:40:57;;;;;;;4.20;2.53;;;;;;;13.28;68.51;102509.84;5013205;28;20125;-72
2022/08/07 01:43:23;;;;;;;3.30;2.35;;;;;;;13.29;69.06;102502.88;5013690;28;21093;-72
2022/08/07 01:45:49;;;;;;;3.28;2.30;;;;;;;13.28;69.26;102506.38;5010672;28;20469;-73
2022/08/07 01:48:14;;;;;;;3.58;2.65;;;;;;;13.24;69.31;102499.44;5013193;28;20113;-72
2022/08/07 01:50:44;;;;;;;3.35;2.55;;;;;;;13.21;69.33;102498.59;5013466;28;20029;-72
2022/08/07 01:53:11;;;;;;;4.40;2.47;;;;;;;13.18;69.71;102501.22;5013774;28;20085;-72
2022/08/07 01:55:43;;;;;;;3.58;2.65;;;;;;;13.14;69.04;102494.31;5011970;28;20378;-72
2022/08/07 01:58:12;;;;;;;3.80;2.60;;;;;;;13.13;69.87;102502.16;5012534;28;20038;-72
2022/08/07 02:00:40;;;;;;;5.88;2.53;;;;;;;13.10;69.91;102500.47;5006962;28;20030;-72
2022/08/07 02:03:14;;;;;;;5.32;2.80;;;;;;;13.06;69.31;102499.59;5010429;28;20033;-72
2022/08/07 02:05:57;;;;;;;4.38;2.53;;;;;;;13.00;69.41;102494.44;5013011;28;20021;-72
2022/08/07 02:08:25;;;;;;;4.22;2.70;;;;;;;12.94;70.55;102493.66;5011483;28;20044;-72
2022/08/07 02:10:53;;;;;;;4.28;3.00;;;;;;;12.91;70.93;102494.53;5006255;28;20033;-72
2022/08/07 02:13:23;;;;;;;3.92;2.80;;;;;;;12.87;70.80;102498.06;5008179;28;20026;-72
2022/08/07 02:15:50;;;;;;;4.60;2.85;;;;;;;12.86;70.92;102497.19;5013819;28;20079;-72
2022/08/07 02:18:18;;;;;;;5.93;2.83;;;;;;;12.84;70.93;102493.72;5009444;28;20172;-72
2022/08/07 02:20:45;;;;;;;5.20;2.80;;;;;;;12.84;71.13;102487.63;5014128;28;20034;-72
2022/08/07 02:23:13;;;;;;;4.18;2.83;;;;;;;12.81;71.22;102491.13;5015537;28;20040;-72
2022/08/07 02:25:40;;;;;;;4.38;2.95;;;;;;;12.78;71.38;102483.34;5010075;28;20088;-73
2022/08/07 02:28:07;;;;;;;4.80;2.90;;;;;;;12.77;71.00;102485.94;5011952;28;20034;-72
2022/08/07 02:30:34;;;;;;;4.57;2.80;;;;;;;12.77;71.17;102485.94;5009160;28;20029;-72
2022/08/07 02:33:01;;;;;;;5.70;2.95;;;;;;;12.75;71.45;102491.19;5013143;28;20421;-72
2022/08/07 02:35:27;;;;;;;6.32;3.00;;;;;;;12.73;71.26;102482.50;5013357;28;20065;-72
2022/08/07 02:37:56;;;;;;;5.47;3.08;;;;;;;12.74;71.07;102486.84;5011965;28;20790;-72
2022/08/07 02:40:22;;;;;;;5.65;3.17;;;;;;;12.73;70.50;102483.34;5009800;28;20551;-72
2022/08/07 02:42:49;;;;;;;5.78;3.22;;;;;;;12.71;70.80;102476.41;5013369;28;20026;-72
2022/08/07 02:45:18;;;;;;;4.05;2.63;;;;;;;12.72;70.88;102483.38;5029165;28;20118;-72
2022/08/07 02:47:44;;;;;;;4.57;2.67;;;;;;;12.74;69.84;102484.22;5010538;28;20036;-72
2022/08/07 02:50:10;;;;;;;3.70;2.80;;;;;;;12.73;70.34;102480.75;5006590;28;20480;-72
2022/08/07 02:52:52;;;;;;;4.40;3.03;;;;;;;12.71;70.46;102486.88;5009528;28;20045;-72
2022/08/07 02:55:24;;;;;;;5.32;2.70;;;;;;;12.71;70.55;102481.63;5010470;28;20022;-72
2022/08/07 02:57:52;;;;;;;6.78;2.85;;;;;;;12.68;70.04;102477.31;5008289;28;20034;-72
2022/08/07 03:00:18;;;;;;;4.88;3.13;;;;;;;12.65;70.28;102476.47;5005145;28;20025;-72
2022/08/07 03:02:47;;;;;;;4.30;2.97;;;;;;;12.62;71.22;102471.28;5010168;28;20042;-72
2022/08/07 03:05:14;;;;;;;5.75;3.00;;;;;;;12.60;71.50;102473.88;5009679;28;20080;-72
2022/08/07 03:07:40;;;;;;;5.15;3.00;;;;;;;12.57;71.69;102474.78;5009533;28;20030;-72
2022/08/07 03:10:07;;;;;;;5.75;3.05;;;;;;;12.55;71.94;102471.31;5013396;28;20029;-72
2022/08/07 03:12:33;;;;;;;4.57;3.08;;;;;;;12.54;71.79;102469.59;5011329;28;20104;-72
2022/08/07 03:15:00;;;;;;;5.28;3.08;;;;;;;12.49;72.13;102471.34;5011132;28;20030;-72
2022/08/07 03:17:25;;;;;;;5.95;3.03;;;;;;;12.48;71.68;102463.56;5012188;28;20092;-72
2022/08/07 03:19:52;;;;;;;4.10;2.97;;;;;;;12.46;71.40;102466.19;5010382;28;20492;-72
2022/08/07 03:22:19;;;;;;;6.53;3.03;;;;;;;12.43;71.89;102474.03;5011383;28;20033;-72
2022/08/07 03:24:46;;;;;;;4.43;3.05;;;;;;;12.40;72.06;102472.28;5010513;28;20037;-73
2022/08/07 03:27:13;;;;;;;4.30;3.10;;;;;;;12.38;71.79;102474.03;5012069;28;20153;-72
2022/08/07 03:29:48;;;;;;;5.28;3.13;;;;;;;12.35;71.79;102468.88;5012884;28;20021;-72
2022/08/07 03:32:17;;;;;;;5.05;3.13;;;;;;;12.33;71.51;102468.00;5010331;28;20034;-72
2022/08/07 03:34:45;;;;;;;6.15;3.13;;;;;;;12.32;70.31;102475.84;5011894;28;20053;-73
2022/08/07 03:37:11;;;;;;;5.90;3.00;;;;;;;12.28;70.47;102470.66;5012198;28;20053;-72
2022/08/07 03:39:37;;;;;;;6.35;3.47;;;;;;;12.23;72.18;102463.72;5012112;28;20438;-73
2022/08/07 03:42:04;;;;;;;3.88;3.00;;;;;;;12.21;70.60;102471.56;5013661;28;20109;-72
2022/08/07 03:44:32;;;;;;;4.25;2.83;;;;;;;12.14;70.79;102478.56;5008547;28;20033;-72
2022/08/07 03:46:57;;;;;;;4.65;2.83;;;;;;;12.11;71.19;102472.50;5016289;28;20028;-72
2022/08/07 03:49:22;;;;;;;3.85;2.60;;;;;;;12.07;71.05;102471.63;5009549;28;20026;-72
2022/08/07 03:51:50;;;;;;;4.35;2.90;;;;;;;12.07;71.30;102470.78;5015682;28;20056;-72
2022/08/07 03:54:15;;;;;;;5.00;2.75;;;;;;;12.05;71.45;102476.00;5008486;28;20909;-72
2022/08/07 03:56:42;;;;;;;4.78;3.50;;;;;;;12.04;71.43;102476.88;5013270;28;20033;-72
2022/08/07 03:59:11;;;;;;;5.07;2.97;;;;;;;12.00;72.02;102475.16;5011250;28;20033;-73
2022/08/07 04:01:40;;;;;;;5.32;3.03;;;;;;;11.99;71.52;102476.91;5009750;28;20026;-72
2022/08/07 04:04:05;;;;;;;5.80;3.38;;;;;;;12.01;71.46;102478.63;5010132;28;20105;-72
2022/08/07 04:06:32;;;;;;;4.80;3.22;;;;;;;11.99;70.95;102482.13;5010187;28;20548;-72
2022/08/07 04:08:58;;;;;;;5.43;3.47;;;;;;;11.96;71.65;102484.69;5008847;28;20049;-72
2022/08/07 04:11:24;;;;;;;4.38;3.35;;;;;;;11.93;71.95;102487.34;5010000;28;20104;-73
2022/08/07 04:13:50;;;;;;;5.53;3.50;;;;;;;11.88;73.15;102483.88;5011681;28;20037;-72
2022/08/07 04:16:15;;;;;;;5.85;3.30;;;;;;;11.85;73.53;102483.91;5010889;28;20036;-72
2022/08/07 04:18:41;;;;;;;5.43;3.28;;;;;;;11.82;73.45;102483.91;5010625;28;20029;-72
2022/08/07 04:21:06;;;;;;;4.90;3.35;;;;;;;11.79;73.11;102483.91;5010882;28;20025;-72
2022/08/07 04:23:33;;;;;;;5.70;3.40;;;;;;;11.75;73.37;102487.44;5012701;28;20026;-72
2022/08/07 04:25:58;;;;;;;4.63;3.30;;;;;;;11.76;73.37;102489.16;5009477;28;20025;-72
2022/08/07 04:28:23;;;;;;;4.80;3.08;;;;;;;11.74;73.29;102488.31;5015272;28;20603;-71
2022/08/07 04:30:50;;;;;;;3.65;2.83;;;;;;;11.75;73.35;102488.28;5015256;28;20050;-72
2022/08/07 04:33:16;;;;;;;5.38;3.15;;;;;;;11.76;73.09;102492.63;5017014;28;20021;-71
2022/08/07 04:35:45;;;;;;;4.47;3.20;;;;;;;11.77;73.22;102493.50;5018653;28;20060;-71
2022/08/07 04:38:10;;;;;;;5.30;3.42;;;;;;;11.77;72.45;102498.72;5016874;28;20026;-71
2022/08/07 04:40:41;;;;;;;5.97;3.72;;;;;;;11.78;73.44;102493.50;5016738;28;20029;-72
2022/08/07 04:43:06;;;;;;;4.90;3.38;;;;;;;11.81;73.20;102490.00;5012445;28;20076;-72
2022/08/07 04:45:39;;;;;;;7.03;4.10;;;;;;;11.80;72.89;102485.66;5013023;28;20433;-72
2022/08/07 04:48:29;;;;;;;6.63;4.25;;;;;;;11.81;72.22;102488.25;5013060;28;20036;-71
2022/08/07 04:51:03;;;;;;;6.53;3.83;;;;;;;11.80;73.91;102499.56;5014570;28;20080;-72
2022/08/07 04:53:49;;;;;;;5.68;3.72;;;;;;;11.80;72.60;102501.28;5014236;28;20393;-72
2022/08/07 04:56:30;;;;;;;5.95;4.05;;;;;;;11.79;73.23;102499.56;5010336;28;20036;-72
2022/08/07 04:58:59;;;;;;;7.28;3.92;;;;;;;11.81;73.72;102508.25;5014715;28;20126;-74
2022/08/07 05:02:17;;;;;;;5.55;3.80;;;;;;;11.88;72.49;102509.97;5008363;28;20559;-73
2022/08/07 05:04:51;;;;;;;5.32;3.70;;;;;;;11.90;73.34;102509.94;5004070;28;20045;-72
2022/08/07 05:07:28;;;;;;;6.47;3.70;;;;;;;11.93;73.56;102508.22;5011082;28;20029;-72
2022/08/07 05:10:11;;;;;;;7.13;4.63;;;;;;;11.95;73.26;102509.09;5025173;28;20108;-72
2022/08/07 05:12:57;;;;;;;7.82;4.70;;;;;;;12.02;72.96;102509.06;5011911;28;21395;-72
2022/08/07 05:15:30;;;;;;;9.18;6.10;;;;;;;12.05;73.97;102511.66;5011401;28;20037;-71
2022/08/07 05:18:00;;;;;;;25.05;13.65;;;;;;;12.10;73.96;102504.69;5009015;28;20220;-72
2022/08/07 05:20:32;;;;;;;22.23;12.70;;;;;;;12.14;74.15;102509.88;5011337;28;20381;-72
2022/08/07 05:23:03;;;;;;;17.00;9.48;;;;;;;12.20;74.59;102519.41;5011429;28;20113;-73
2022/08/07 05:25:30;;;;;;;11.87;7.60;;;;;;;12.26;74.63;102508.06;5009138;28;20033;-72
2022/08/07 05:27:57;;;;;;;10.82;6.55;;;;;;;12.30;74.37;102513.25;5014378;28;20017;-73
2022/08/07 05:30:24;;;;;;;8.68;5.75;;;;;;;12.37;74.81;102515.81;5015239;28;20034;-72
2022/08/07 05:32:51;;;;;;;9.05;5.72;;;;;;;12.42;74.30;102517.53;5016055;28;20029;-73
2022/08/07 05:35:18;;;;;;;7.43;5.63;;;;;;;12.48;74.94;102516.59;5016843;28;20029;-72
2022/08/07 05:37:45;;;;;;;9.38;5.70;;;;;;;12.55;74.92;102517.47;5015498;28;20049;-72
2022/08/07 05:40:11;;;;;;;7.20;5.28;;;;;;;12.62;74.78;102518.28;5014124;28;20021;-73
2022/08/07 05:42:37;;;;;;;8.70;5.78;;;;;;;12.70;74.03;102526.91;5018239;28;20030;-73
2022/08/07 05:45:04;;;;;;;8.95;6.00;;;;;;;12.74;73.78;102526.88;5015943;28;20477;-72
2022/08/07 05:47:31;;;;;;;8.82;6.05;;;;;;;12.82;74.42;102523.34;5014052;28;20044;-73
2022/08/07 05:49:57;;;;;;;9.18;6.13;;;;;;;12.89;74.37;102525.03;5012634;28;20025;-72
2022/08/07 05:52:22;;;;;;;9.60;6.45;;;;;;;12.97;74.40;102527.59;5015040;28;20034;-72
2022/08/07 05:54:48;;;;;;;9.18;5.93;;;;;;;13.03;74.73;102519.66;5018900;28;20022;-73
2022/08/07 05:57:14;;;;;;;10.15;5.72;;;;;;;13.08;74.24;102517.91;5013700;28;20025;-73
2022/08/07 05:59:41;;;;;;;8.20;5.05;;;;;;;13.15;74.22;102529.16;5011420;28;20022;-73
2022/08/07 06:02:08;;;;;;;8.82;5.28;;;;;;;13.21;74.08;102524.72;5010233;28;20026;-73
2022/08/07 06:04:38;;;;;;;9.52;5.00;;;;;;;13.31;74.01;102527.28;5007946;28;20649;-74
2022/08/07 06:07:04;;;;;;;6.88;4.63;;;;;;;13.39;73.56;102525.41;5013409;28;20053;-73
2022/08/07 06:09:33;;;;;;;8.40;5.30;;;;;;;13.49;73.16;102529.69;5015264;28;20026;-72
2022/08/07 06:11:58;;;;;;;6.43;4.55;;;;;;;13.62;74.28;102532.19;5008801;28;20078;-74
2022/08/07 06:14:24;;;;;;;7.00;4.53;;;;;;;13.70;73.42;102538.19;5007673;28;20208;-71
2022/08/07 06:16:51;;;;;;;8.35;4.40;;;;;;;13.82;72.56;102537.19;5006797;28;20037;-72
2022/08/07 06:19:18;;;;;;;7.63;4.72;;;;;;;13.92;73.41;102532.69;5008040;28;20030;-72
2022/08/07 06:21:45;;;;;;;8.07;4.70;;;;;;;14.01;72.43;102536.94;5007710;28;20029;-73
2022/08/07 06:24:11;;;;;;;8.20;5.05;;;;;;;14.06;71.50;102535.16;5007508;28;20034;-72
2022/08/07 06:26:41;;;;;;;6.80;4.43;;;;;;;14.14;72.84;102537.66;5008485;28;20037;-72
2022/08/07 06:29:06;;;;;;;8.02;5.40;;;;;;;14.21;72.15;102540.19;5009212;28;20096;-72
2022/08/07 06:31:32;;;;;;;6.97;4.95;;;;;;;14.28;71.70;102538.34;5005367;28;20030;-72
2022/08/07 06:33:57;;;;;;;7.72;5.05;;;;;;;14.35;70.84;102528.63;5008820;28;20038;-72
2022/08/07 06:36:25;;;;;;;8.88;5.57;;;;;;;14.42;72.16;102527.69;5010135;28;20516;-72
2022/08/07 06:38:51;;;;;;;8.60;5.03;;;;;;;14.49;72.31;102528.44;5011909;28;21519;-74
2022/08/07 06:41:31;;;;;;;8.82;5.32;;;;;;;14.55;71.20;102518.75;5014483;28;20030;-72
2022/08/07 06:43:58;;;;;;;9.85;5.20;;;;;;;14.66;69.80;102529.06;5012963;28;20026;-72
2022/08/07 06:46:24;;;;;;;8.50;5.38;;;;;;;14.76;69.54;102524.56;5012622;28;20045;-74
2022/08/07 06:48:49;;;;;;;7.35;5.03;;;;;;;14.85;69.70;102524.41;5014918;28;20022;-71
2022/08/07 06:51:19;;;;;;;7.88;5.45;;;;;;;14.92;69.41;102517.28;5015685;28;20034;-71
2022/08/07 06:53:45;;;;;;;7.97;5.10;;;;;;;14.98;68.13;102522.44;5013409;28;20389;-71
2022/08/07 06:56:12;;;;;;;9.18;5.47;;;;;;;15.07;68.30;102512.66;5016350;28;20076;-72
2022/08/07 06:58:39;;;;;;;8.05;5.53;;;;;;;15.12;67.68;102514.31;5019896;28;20481;-72
2022/08/07 07:01:07;;;;;;;7.55;5.13;;;;;;;15.20;67.85;102506.31;5017660;28;20083;-72
2022/08/07 07:03:34;;;;;;;7.75;5.20;;;;;;;15.25;67.69;102504.47;5015915;28;20028;-72
2022/08/07 07:05:59;;;;;;;6.70;4.95;;;;;;;15.30;66.79;102507.88;5014142;28;20033;-73
2022/08/07 07:08:28;;;;;;;8.35;5.43;;;;;;;15.34;66.17;102506.06;5014912;28;20018;-73
2022/08/07 07:10:54;;;;;;;9.38;5.28;;;;;;;15.36;67.93;102506.03;5010890;28;20018;-72
2022/08/07 07:13:42;;;;;;;7.45;5.30;;;;;;;15.38;67.38;102512.97;5005014;28;20104;-72
2022/08/07 07:16:15;;;;;;;9.23;5.00;;;;;;;15.40;66.94;102519.06;5007194;28;20037;-73
2022/08/07 07:18:48;;;;;;;7.53;5.25;;;;;;;15.41;65.83;102520.78;5007856;28;20031;-73
2022/08/07 07:21:19;;;;;;;8.55;4.57;;;;;;;15.43;66.19;102519.00;5008176;28;20064;-73
2022/08/07 07:23:45;;;;;;;7.03;4.70;;;;;;;15.47;65.39;102519.81;5015105;28;20032;-72
2022/08/07 07:26:14;;;;;;;6.95;4.65;;;;;;;15.50;64.23;102518.88;5013918;28;20033;-72
2022/08/07 07:28:47;;;;;;;7.05;4.95;;;;;;;15.54;64.87;102521.41;5013652;28;20018;-72
2022/08/07 07:31:34;;;;;;;7.18;4.50;;;;;;;15.59;65.47;102519.56;5011354;28;20048;-72
2022/08/07 07:34:05;;;;;;;7.07;4.65;;;;;;;15.65;64.13;102517.72;5004630;28;20037;-73
2022/08/07 07:36:36;;;;;;;7.25;4.57;;;;;;;15.70;65.52;102511.47;5017975;28;20056;-72
2022/08/07 07:39:03;;;;;;;7.15;4.70;;;;;;;15.74;63.75;102507.00;5016420;28;20037;-72
2022/08/07 07:41:29;;;;;;;6.35;4.30;;;;;;;15.78;64.26;102503.44;5016515;28;20064;-72
2022/08/07 07:43:57;;;;;;;6.93;4.25;;;;;;;15.85;64.22;102497.22;5016063;28;20489;-72
2022/08/07 07:46:23;;;;;;;7.60;4.38;;;;;;;15.93;65.03;102497.03;5014864;28;20040;-72
2022/08/07 07:48:51;;;;;;;6.05;4.47;;;;;;;16.04;63.58;102494.19;5018970;28;20059;-73
2022/08/07 07:51:19;;;;;;;7.15;4.25;;;;;;;16.12;62.14;102497.47;5016555;28;20033;-72
2022/08/07 07:53:45;;;;;;;6.22;4.03;;;;;;;16.15;63.02;102494.78;5015288;28;20057;-72
2022/08/07 07:56:12;;;;;;;7.18;3.88;;;;;;;16.22;64.20;102498.16;5016958;28;20454;-72
2022/08/07 07:58:39;;;;;;;7.15;3.95;;;;;;;16.30;62.48;102490.09;5017084;28;20104;-72
2022/08/07 08:01:06;;;;;;;6.20;3.88;;;;;;;16.38;62.25;102491.63;5017531;28;20044;-72
2022/08/07 08:03:34;;;;;;;5.60;3.50;;;;;;;16.46;63.21;102496.69;5015808;28;20043;-72
2022/08/07 08:06:00;;;;;;;4.72;3.35;;;;;;;16.51;61.04;102492.22;5017410;28;20107;-72
2022/08/07 08:08:31;;;;;;;5.55;3.97;;;;;;;16.55;61.10;102482.47;5019291;28;20128;-72
2022/08/07 08:10:58;;;;;;;5.78;3.42;;;;;;;16.61;61.23;102486.72;5018044;28;20491;-72
2022/08/07 08:13:25;;;;;;;5.85;3.60;;;;;;;16.66;62.20;102487.47;5016916;28;20033;-72
2022/08/07 08:15:51;;;;;;;4.90;3.60;;;;;;;16.74;61.04;102488.13;5018671;28;20037;-71
2022/08/07 08:18:18;;;;;;;6.38;3.75;;;;;;;16.81;60.06;102492.34;5018632;28;20029;-72
2022/08/07 08:20:46;;;;;;;6.95;3.92;;;;;;;16.86;59.79;102488.72;5017941;28;20056;-72
2022/08/07 08:27:03;;;;;;;4.32;3.17;;;;;;;16.93;60.56;102488.53;5017637;28;20065;-72
2022/08/07 08:28:54;;;;;;;5.70;3.30;;;;;;;16.97;58.69;102487.59;5016123;28;20048;-74
2022/08/07 08:31:23;;;;;;;4.70;3.13;;;;;;;17.01;56.95;102493.63;5015905;28;20029;-72
2022/08/07 08:33:52;;;;;;;5.50;3.20;;;;;;;17.06;57.49;102497.00;5015919;28;20033;-73
2022/08/07 08:36:19;;;;;;;4.88;2.90;;;;;;;17.10;56.95;102503.03;5015542;28;20141;-72
2022/08/07 08:38:45;;;;;;;5.03;3.10;;;;;;;17.14;55.84;102510.78;5014761;28;20159;-72
2022/08/07 08:41:30;;;;;;;5.28;3.03;;;;;;;17.22;58.07;102501.84;5019266;28;20026;-71
2022/08/07 08:44:14;;;;;;;4.00;2.92;;;;;;;17.27;57.47;102492.91;5013445;28;20042;-71
2022/08/07 08:46:53;;;;;;;5.60;3.38;;;;;;;17.34;57.16;102496.22;5018587;28;20032;-72
2022/08/07 08:49:35;;;;;;;4.13;3.08;;;;;;;17.40;57.21;102495.19;5018595;28;20033;-72
2022/08/07 08:52:00;;;;;;;;;;;;;;;17.47;58.27;102498.50;5013206;28;20060;-71
2022/08/07 08:54:33;;;;;;;3.35;2.40;;;;;;;17.53;57.04;102493.09;5016291;28;19970;-72
2022/08/07 08:57:04;;;;;;;5.70;2.83;;;;;;;17.60;55.26;102498.13;5018012;28;20064;-72
2022/08/07 08:59:44;;;;;;;6.38;2.95;;;;;;;17.65;56.40;102490.09;5015124;28;20153;-72
2022/08/07 09:02:23;;;;;;;4.57;2.80;;;;;;;17.71;56.01;102489.91;5015151;28;20026;-72
2022/08/07 09:05:13;;;;;;;4.30;2.63;;;;;;;17.74;54.66;102491.59;5018593;28;20029;-72
2022/08/07 09:07:48;;;;;;;5.22;3.00;;;;;;;17.77;53.70;102485.38;5014831;28;20034;-72
2022/08/07 09:10:25;;;;;;;4.07;2.47;;;;;;;17.83;55.69;102488.69;5019507;28;20100;-72
2022/08/07 09:13:13;;;;;;;4.65;2.60;;;;;;;17.88;55.67;102492.03;5018052;28;20036;-73
2022/08/07 09:15:50;;;;;;;3.45;2.42;;;;;;;17.93;55.52;102475.25;5020726;28;20515;-72
2022/08/07 09:18:30;;;;;;;4.35;2.40;;;;;;;17.95;52.87;102481.31;5019257;28;20061;-72
2022/08/07 09:21:24;;;;;;;4.03;2.60;;;;;;;18.00;54.86;102482.09;5020922;28;20437;-72
2022/08/07 09:23:55;;;;;;;3.40;2.20;;;;;;;18.02;52.85;102482.88;5016161;28;20041;-73
2022/08/07 09:26:54;;;;;;;3.33;2.33;;;;;;;18.07;53.51;102480.13;5019769;28;20090;-73
2022/08/07 09:29:36;;;;;;;4.00;1.80;;;;;;;18.11;52.70;102476.47;5019135;28;20037;-74
2022/08/07 09:32:31;;;;;;;3.58;2.22;;;;;;;18.16;53.53;102474.56;5020619;28;20029;-73
2022/08/07 09:35:11;;;;;;;3.28;1.90;;;;;;;18.18;52.40;102470.09;5014701;28;20372;-74
2022/08/07 09:38:10;;;;;;;3.20;1.98;;;;;;;18.25;53.22;102474.28;5019329;28;20045;-73
2022/08/07 09:41:03;;;;;;;3.25;2.20;;;;;;;18.28;51.86;102474.16;5020422;28;20038;-74
2022/08/07 09:44:10;;;;;;;3.70;2.28;;;;;;;18.37;53.25;102472.16;5019608;28;21610;-72
2022/08/07 09:47:03;;;;;;;3.42;2.30;;;;;;;18.39;52.82;102471.19;5019869;28;20104;-72
2022/08/07 09:49:42;;;;;;;5.57;2.50;;;;;;;18.43;51.40;102466.69;5007585;28;20472;-72
2022/08/07 09:52:38;;;;;;;3.47;2.45;;;;;;;18.46;51.94;102462.16;5022678;28;20049;-73
2022/08/07 09:55:20;;;;;;;4.30;2.30;;;;;;;18.54;51.62;102459.28;4993459;28;20022;-73
2022/08/07 09:58:06;;;;;;;4.10;2.47;;;;;;;18.62;51.69;102454.59;5018778;28;20052;-73
2022/08/07 10:00:58;;;;;;;4.18;2.50;;;;;;;18.66;52.22;102453.56;5019184;28;20048;-73
2022/08/07 10:03:42;;;;;;;;;;;;;;;18.72;52.78;102446.38;5017972;28;20564;-73
2022/08/07 10:06:29;;;;;;;3.72;1.98;;;;;;;18.74;50.68;102436.66;5015877;28;20389;-73
2022/08/07 10:09:31;;;;;;;3.80;2.20;;;;;;;18.81;52.08;102435.50;5017765;28;20111;-73
2022/08/07 10:12:21;;;;;;;3.10;2.22;;;;;;;18.89;51.40;102444.03;5019738;28;20036;-73
2022/08/07 10:15:07;;;;;;;3.70;2.58;;;;;;;18.94;51.69;102439.47;5017931;28;20484;-73
2022/08/07 10:17:48;;;;;;;3.55;2.25;;;;;;;18.98;50.92;102424.41;5023705;28;20033;-73
2022/08/07 10:20:48;;;;;;;4.05;2.17;;;;;;;19.03;52.24;102430.38;5008072;28;20037;-73
2022/08/07 10:23:44;;;;;;;3.80;2.20;;;;;;;19.03;52.05;102425.09;5020001;28;20036;-72
2022/08/07 10:26:47;;;;;;;4.90;2.25;;;;;;;19.03;50.75;102424.22;5022204;28;20057;-72
2022/08/07 10:29:34;;;;;;;4.85;2.30;;;;;;;19.06;49.85;102419.69;5022445;28;20037;-72
2022/08/07 10:32:33;;;;;;;3.53;2.03;;;;;;;19.07;51.45;102424.06;5020207;28;20481;-73
2022/08/07 10:35:10;;;;;;;3.30;2.15;;;;;;;19.04;50.71;102426.81;5009986;28;20028;-73
2022/08/07 10:38:01;;;;;;;4.13;2.42;;;;;;;19.00;49.85;102422.56;5009157;28;20060;-73
2022/08/07 10:40:34;;;;;;;4.82;2.05;;;;;;;19.01;47.72;102420.78;5004225;28;20068;-73
2022/08/07 10:43:05;;;;;;;3.28;2.10;;;;;;;19.05;48.46;102412.69;5008310;28;20548;-73
2022/08/07 10:45:48;;;;;;;;;;;;;;;19.13;50.70;102414.19;5004599;28;20030;-73
2022/08/07 10:48:41;;;;;;;4.80;2.03;;;;;;;19.22;49.64;102409.44;5005828;28;19924;-74
2022/08/07 10:51:17;;;;;;;3.22;2.00;;;;;;;19.31;50.15;102402.97;5011358;28;21536;-74
2022/08/07 10:54:19;;;;;;;2.75;1.75;;;;;;;19.39;48.94;102400.88;5016182;28;20560;-74
2022/08/07 10:56:44;;;;;;;;;;;;;;;19.46;50.51;102398.91;5011830;28;20038;-73
2022/08/07 10:59:22;;;;;;;4.03;2.50;;;;;;;19.47;49.88;102403.22;5016459;28;20510;-73
2022/08/07 11:02:15;;;;;;;3.97;2.30;;;;;;;19.50;49.76;102397.84;5002895;28;20029;-74
2022/08/07 11:05:17;;;;;;;4.80;2.45;;;;;;;19.55;49.66;102395.88;5005570;28;20038;-73
2022/08/07 11:07:52;;;;;;;4.38;2.58;;;;;;;19.58;47.30;102388.78;5029793;28;20030;-74
2022/08/07 11:10:45;;;;;;;3.42;2.10;;;;;;;19.61;47.76;102389.50;5016262;28;20033;-72
2022/08/07 11:13:28;;;;;;;4.30;2.33;;;;;;;19.68;47.95;102384.84;5018022;28;20040;-73
2022/08/07 11:16:01;;;;;;;4.03;2.40;;;;;;;19.74;47.90;102381.97;5023536;28;21339;-74
2022/08/07 11:18:41;;;;;;;3.55;2.55;;;;;;;19.79;46.86;102384.41;5015993;28;20079;-74
2022/08/07 11:21:25;;;;;;;5.32;2.30;;;;;;;19.82;47.00;102371.94;5015992;28;20021;-73
2022/08/07 11:24:02;;;;;;;4.93;2.45;;;;;;;19.84;46.16;102374.53;5018824;28;20041;-73
2022/08/07 11:26:48;;;;;;;4.25;2.30;;;;;;;19.90;47.26;102373.44;5015785;28;20087;-73
2022/08/07 11:29:37;;;;;;;4.07;2.20;;;;;;;19.93;48.19;102376.81;5007381;28;20029;-73
2022/08/07 11:32:42;;;;;;;4.00;2.35;;;;;;;19.98;47.30;102369.56;5014232;28;20037;-74
2022/08/07 11:35:20;;;;;;;3.67;2.35;;;;;;;20.08;46.62;102366.53;5008152;28;20037;-73
2022/08/07 11:38:04;;;;;;;3.05;2.05;;;;;;;20.14;45.64;102366.28;5007492;28;20124;-73
2022/08/07 11:40:58;;;;;;;3.97;2.22;;;;;;;20.22;46.48;102368.59;5007789;28;20044;-73
2022/08/07 11:43:25;;;;;;;3.88;2.25;;;;;;;20.29;44.38;102354.22;5011987;28;20489;-74
2022/08/07 11:46:02;;;;;;;3.53;2.15;;;;;;;20.35;45.47;102351.28;5009628;28;20044;-74
2022/08/07 11:48:42;;;;;;;4.28;2.15;;;;;;;20.41;44.43;102351.03;5006823;28;20473;-73
2022/08/07 11:51:27;;;;;;;3.45;2.00;;;;;;;20.54;46.60;102345.19;5012231;28;20090;-74
2022/08/07 11:54:11;;;;;;;2.78;2.03;;;;;;;20.62;45.85;102349.22;5007042;28;20072;-73